sensor_id;sensor_type;location;lat;lon;timestamp;pressure;altitude;pressure_sealevel;temperature;humidity
46199;BME280;31928;52.104;10.030;2023-08-31T18:08:58;100062.09;;;19.58;51.85
46199;BME280;31928;52.104;10.030;2023-08-31T18:11:25;100077.22;;;19.74;50.99
46199;BME280;31928;52.104;10.030;2023-08-31T18:13:51;100067.41;;;19.78;51.19
46199;BME280;31928;52.104;10.030;2023-08-31T18:16:18;100069.63;;;19.76;50.86
46199;BME280;31928;52.104;10.030;2023-08-31T18:18:45;100067.22;;;19.70;51.04
46199;BME280;31928;52.104;10.030;2023-08-31T18:21:12;100066.97;;;19.61;50.93
46199;BME280;31928;52.104;10.030;2023-08-31T18:23:38;100073.50;;;19.50;50.86
46199;BME280;31928;52.104;10.030;2023-08-31T18:26:06;100086.34;;;19.40;51.43
46199;BME280;31928;52.104;10.030;2023-08-31T18:28:33;100082.69;;;19.74;49.70
46199;BME280;31928;52.104;10.030;2023-08-31T18:30:59;100091.81;;;19.30;51.21
46199;BME280;31928;52.104;10.030;2023-08-31T18:33:29;100095.38;;;19.16;51.37
46199;BME280;31928;52.104;10.030;2023-08-31T18:35:56;100100.84;;;19.06;51.74
46199;BME280;31928;52.104;10.030;2023-08-31T18:38:25;100106.53;;;18.99;51.51
46199;BME280;31928;52.104;10.030;2023-08-31T18:40:53;100104.88;;;18.88;52.00
46199;BME280;31928;52.104;10.030;2023-08-31T18:43:22;100101.38;;;18.83;52.17
46199;BME280;31928;52.104;10.030;2023-08-31T18:45:50;100101.91;;;18.75;52.26
46199;BME280;31928;52.104;10.030;2023-08-31T18:48:17;100108.41;;;18.69;52.00
46199;BME280;31928;52.104;10.030;2023-08-31T18:50:44;100103.81;;;18.65;52.42
46199;BME280;31928;52.104;10.030;2023-08-31T18:53:11;100111.69;;;18.61;52.44
46199;BME280;31928;52.104;10.030;2023-08-31T18:55:37;100112.75;;;18.55;52.62
46199;BME280;31928;52.104;10.030;2023-08-31T18:58:04;100115.47;;;18.50;52.96
46199;BME280;31928;52.104;10.030;2023-08-31T19:00:31;100123.88;;;18.49;52.73
46199;BME280;31928;52.104;10.030;2023-08-31T19:02:58;100127.41;;;18.44;53.11
46199;BME280;31928;52.104;10.030;2023-08-31T19:05:26;100122.50;;;18.41;53.04
46199;BME280;31928;52.104;10.030;2023-08-31T19:07:53;100130.41;;;18.38;52.96
46199;BME280;31928;52.104;10.030;2023-08-31T19:10:19;100135.53;;;18.34;53.01
46199;BME280;31928;52.104;10.030;2023-08-31T19:12:48;100135.25;;;18.31;53.23
46199;BME280;31928;52.104;10.030;2023-08-31T19:15:16;100136.31;;;18.30;53.19
46199;BME280;31928;52.104;10.030;2023-08-31T19:17:44;100129.00;;;18.25;52.95
46199;BME280;31928;52.104;10.030;2023-08-31T19:20:13;100139.28;;;18.23;53.37
46199;BME280;31928;52.104;10.030;2023-08-31T19:22:45;100143.66;;;18.24;53.34
46199;BME280;31928;52.104;10.030;2023-08-31T19:25:12;100144.13;;;18.16;53.54
46199;BME280;31928;52.104;10.030;2023-08-31T19:27:39;100143.84;;;18.13;52.99
46199;BME280;31928;52.104;10.030;2023-08-31T19:30:07;100147.38;;;18.08;53.41
46199;BME280;31928;52.104;10.030;2023-08-31T19:32:34;100150.63;;;18.06;53.38
46199;BME280;31928;52.104;10.030;2023-08-31T19:35:02;100147.63;;;18.02;53.33
46199;BME280;31928;52.104;10.030;2023-08-31T19:37:50;100150.88;;;17.99;53.40
46199;BME280;31928;52.104;10.030;2023-08-31T19:40:20;100146.53;;;17.98;53.32
46199;BME280;31928;52.104;10.030;2023-08-31T19:42:49;100161.69;;;17.89;53.46
46199;BME280;31928;52.104;10.030;2023-08-31T19:45:16;100156.25;;;17.84;53.44
46199;BME280;31928;52.104;10.030;2023-08-31T19:47:45;100159.72;;;17.80;53.55
46199;BME280;31928;52.104;10.030;2023-08-31T19:50:14;100158.63;;;17.76;53.60
46199;BME280;31928;52.104;10.030;2023-08-31T19:52:42;100161.06;;;17.72;53.46
46199;BME280;31928;52.104;10.030;2023-08-31T19:55:12;100159.16;;;17.73;53.46
46199;BME280;31928;52.104;10.030;2023-08-31T19:57:38;100161.53;;;17.64;53.42
46199;BME280;31928;52.104;10.030;2023-08-31T20:00:06;100162.09;;;17.61;53.92
46199;BME280;31928;52.104;10.030;2023-08-31T20:02:35;100171.81;;;17.57;54.03
46199;BME280;31928;52.104;10.030;2023-08-31T20:05:02;100169.91;;;17.53;54.21
46199;BME280;31928;52.104;10.030;2023-08-31T20:07:32;100163.34;;;17.49;54.05
46199;BME280;31928;52.104;10.030;2023-08-31T20:09:58;100169.31;;;17.46;54.01
46199;BME280;31928;52.104;10.030;2023-08-31T20:12:25;100161.38;;;17.81;51.90
46199;BME280;31928;52.104;10.030;2023-08-31T20:14:52;100164.44;;;17.43;54.08
46199;BME280;31928;52.104;10.030;2023-08-31T20:17:18;100158.41;;;17.36;53.95
46199;BME280;31928;52.104;10.030;2023-08-31T20:19:45;100172.16;;;17.71;52.24
46199;BME280;31928;52.104;10.030;2023-08-31T20:22:12;100170.56;;;17.34;54.03
46199;BME280;31928;52.104;10.030;2023-08-31T20:24:39;100172.97;;;17.25;54.22
46199;BME280;31928;52.104;10.030;2023-08-31T20:27:05;100184.31;;;17.58;52.05
46199;BME280;31928;52.104;10.030;2023-08-31T20:29:32;100184.31;;;17.22;54.31
46199;BME280;31928;52.104;10.030;2023-08-31T20:31:59;100176.63;;;17.14;54.37
46199;BME280;31928;52.104;10.030;2023-08-31T20:34:26;100186.38;;;17.10;54.32
46199;BME280;31928;52.104;10.030;2023-08-31T20:36:53;100183.41;;;17.43;52.12
46199;BME280;31928;52.104;10.030;2023-08-31T20:39:22;100186.09;;;17.07;54.69
46199;BME280;31928;52.104;10.030;2023-08-31T20:41:49;100188.44;;;16.98;54.83
46199;BME280;31928;52.104;10.030;2023-08-31T20:44:16;100190.03;;;16.94;54.76
46199;BME280;31928;52.104;10.030;2023-08-31T20:46:42;100196.84;;;17.28;52.32
46199;BME280;31928;52.104;10.030;2023-08-31T20:49:11;100199.75;;;16.90;54.98
46199;BME280;31928;52.104;10.030;2023-08-31T20:51:38;100195.34;;;16.84;54.77
46199;BME280;31928;52.104;10.030;2023-08-31T20:54:06;100199.91;;;16.79;54.71
46199;BME280;31928;52.104;10.030;2023-08-31T20:56:34;100192.81;;;16.73;55.01
46199;BME280;31928;52.104;10.030;2023-08-31T20:59:02;100200.66;;;16.70;55.01
46199;BME280;31928;52.104;10.030;2023-08-31T21:01:29;100194.91;;;16.66;55.05
46199;BME280;31928;52.104;10.030;2023-08-31T21:03:57;100197.38;;;16.99;52.87
46199;BME280;31928;52.104;10.030;2023-08-31T21:06:24;100200.66;;;17.01;52.46
46199;BME280;31928;52.104;10.030;2023-08-31T21:08:51;100204.69;;;16.67;55.38
46199;BME280;31928;52.104;10.030;2023-08-31T21:11:19;100204.31;;;16.59;55.43
46199;BME280;31928;52.104;10.030;2023-08-31T21:13:47;100203.72;;;16.52;55.97
46199;BME280;31928;52.104;10.030;2023-08-31T21:16:13;100204.19;;;16.49;56.08
46199;BME280;31928;52.104;10.030;2023-08-31T21:18:40;100208.50;;;16.45;56.39
46199;BME280;31928;52.104;10.030;2023-08-31T21:21:08;100205.25;;;16.43;56.20
46199;BME280;31928;52.104;10.030;2023-08-31T21:23:35;100212.78;;;16.41;56.36
46199;BME280;31928;52.104;10.030;2023-08-31T21:26:04;100220.34;;;16.39;56.35
46199;BME280;31928;52.104;10.030;2023-08-31T21:28:31;100212.97;;;16.34;56.03
46199;BME280;31928;52.104;10.030;2023-08-31T21:30:58;100219.72;;;16.32;56.17
46199;BME280;31928;52.104;10.030;2023-08-31T21:33:28;100213.97;;;16.28;56.21
46199;BME280;31928;52.104;10.030;2023-08-31T21:35:55;100216.13;;;16.26;56.02
46199;BME280;31928;52.104;10.030;2023-08-31T21:38:21;100203.25;;;16.60;53.79
46199;BME280;31928;52.104;10.030;2023-08-31T21:40:48;100208.25;;;16.25;56.25
46199;BME280;31928;52.104;10.030;2023-08-31T21:43:15;100216.31;;;16.20;55.99
46199;BME280;31928;52.104;10.030;2023-08-31T21:45:42;100215.16;;;16.16;55.93
46199;BME280;31928;52.104;10.030;2023-08-31T21:48:09;100223.72;;;16.51;53.83
46199;BME280;31928;52.104;10.030;2023-08-31T21:50:35;100222.22;;;16.17;57.26
46199;BME280;31928;52.104;10.030;2023-08-31T21:53:06;100218.88;;;16.10;57.15
46199;BME280;31928;52.104;10.030;2023-08-31T21:55:36;100229.94;;;16.09;57.64
46199;BME280;31928;52.104;10.030;2023-08-31T21:58:02;100219.03;;;16.41;54.46
46199;BME280;31928;52.104;10.030;2023-08-31T22:00:29;100222.63;;;16.09;57.03
46199;BME280;31928;52.104;10.030;2023-08-31T22:02:56;100221.50;;;16.05;56.80
46199;BME280;31928;52.104;10.030;2023-08-31T22:05:24;100215.56;;;16.03;57.20
46199;BME280;31928;52.104;10.030;2023-08-31T22:07:54;100220.38;;;16.01;57.48
46199;BME280;31928;52.104;10.030;2023-08-31T22:10:23;100218.75;;;16.00;57.21
46199;BME280;31928;52.104;10.030;2023-08-31T22:12:52;100222.53;;;15.99;57.57
46199;BME280;31928;52.104;10.030;2023-08-31T22:15:24;100218.25;;;16.03;57.42
46199;BME280;31928;52.104;10.030;2023-08-31T22:17:53;100213.84;;;15.97;57.74
46199;BME280;31928;52.104;10.030;2023-08-31T22:20:21;100223.28;;;15.95;57.97
46199;BME280;31928;52.104;10.030;2023-08-31T22:22:52;100221.41;;;15.95;58.18
46199;BME280;31928;52.104;10.030;2023-08-31T22:25:22;100231.63;;;15.93;58.47
46199;BME280;31928;52.104;10.030;2023-08-31T22:27:51;100233.75;;;15.91;58.55
46199;BME280;31928;52.104;10.030;2023-08-31T22:30:18;100237.81;;;15.89;58.58
46199;BME280;31928;52.104;10.030;2023-08-31T22:32:45;100230.19;;;15.86;58.65
46199;BME280;31928;52.104;10.030;2023-08-31T22:35:12;100226.09;;;15.83;58.80
46199;BME280;31928;52.104;10.030;2023-08-31T22:37:41;100217.44;;;15.81;58.37
46199;BME280;31928;52.104;10.030;2023-08-31T22:40:08;100226.25;;;16.15;55.96
46199;BME280;31928;52.104;10.030;2023-08-31T22:42:36;100225.63;;;15.86;58.18
46199;BME280;31928;52.104;10.030;2023-08-31T22:45:04;100230.38;;;15.79;58.44
46199;BME280;31928;52.104;10.030;2023-08-31T22:47:32;100235.22;;;15.77;58.54
46199;BME280;31928;52.104;10.030;2023-08-31T22:50:00;100238.66;;;15.73;58.95
46199;BME280;31928;52.104;10.030;2023-08-31T22:52:27;100234.31;;;15.72;59.04
46199;BME280;31928;52.104;10.030;2023-08-31T22:54:56;100234.22;;;16.05;55.93
46199;BME280;31928;52.104;10.030;2023-08-31T22:57:24;100231.38;;;15.73;58.56
46199;BME280;31928;52.104;10.030;2023-08-31T22:59:51;100236.47;;;15.70;58.50
46199;BME280;31928;52.104;10.030;2023-08-31T23:02:18;100230.72;;;15.66;58.83
46199;BME280;31928;52.104;10.030;2023-08-31T23:04:45;100241.53;;;15.66;58.89
46199;BME280;31928;52.104;10.030;2023-08-31T23:07:12;100237.44;;;15.64;58.79
46199;BME280;31928;52.104;10.030;2023-08-31T23:09:39;100232.78;;;15.97;56.36
46199;BME280;31928;52.104;10.030;2023-08-31T23:12:06;100235.88;;;15.68;58.80
46199;BME280;31928;52.104;10.030;2023-08-31T23:14:32;100231.78;;;15.65;59.05
46199;BME280;31928;52.104;10.030;2023-08-31T23:16:59;100239.81;;;15.98;55.95
46199;BME280;31928;52.104;10.030;2023-08-31T23:19:27;100243.50;;;15.71;58.39
46199;BME280;31928;52.104;10.030;2023-08-31T23:21:54;100245.88;;;15.67;58.54
46199;BME280;31928;52.104;10.030;2023-08-31T23:24:20;100243.91;;;16.01;55.71
46199;BME280;31928;52.104;10.030;2023-08-31T23:26:48;100250.31;;;15.73;57.98
46199;BME280;31928;52.104;10.030;2023-08-31T23:29:14;100241.88;;;15.70;58.19
46199;BME280;31928;52.104;10.030;2023-08-31T23:31:41;100236.34;;;16.03;55.95
46199;BME280;31928;52.104;10.030;2023-08-31T23:34:07;100238.41;;;15.74;58.28
46199;BME280;31928;52.104;10.030;2023-08-31T23:36:34;100233.41;;;16.04;55.56
46199;BME280;31928;52.104;10.030;2023-08-31T23:39:01;100243.56;;;15.76;57.83
46199;BME280;31928;52.104;10.030;2023-08-31T23:41:35;100242.66;;;15.70;57.89
46199;BME280;31928;52.104;10.030;2023-08-31T23:44:02;100247.28;;;15.70;58.01
46199;BME280;31928;52.104;10.030;2023-08-31T23:46:29;100250.22;;;15.68;58.20
46199;BME280;31928;52.104;10.030;2023-08-31T23:48:55;100252.34;;;15.66;58.14
46199;BME280;31928;52.104;10.030;2023-08-31T23:51:25;100246.94;;;15.66;58.30
46199;BME280;31928;52.104;10.030;2023-08-31T23:53:53;100246.13;;;15.66;58.15
46199;BME280;31928;52.104;10.030;2023-08-31T23:56:21;100249.09;;;15.64;58.62
46199;BME280;31928;52.104;10.030;2023-08-31T23:58:48;100247.44;;;15.63;58.89
